Time;durP1;ratioP1;P1;durP2;ratioP2;P2;SDS_P1;SDS_P2;PMS_P1;PMS_P2;Temp;Humidity;BMP_temperature;BMP_pressure;BME280_temperature;BME280_humidity;BME280_pressure;Samples;Min_cycle;Max_cycle;Signal;HPM_P1;HPM_P2
2022/09/27 00:01:46;;;;;;;;;;;;;;;;;;5032889;28;20036;-88
2022/09/27 00:04:11;;;;;;;66.93;7.50;;;;;;;;;;5049510;28;19913;-87
2022/09/27 00:06:37;;;;;;;53.67;7.18;;;;;;;;;;5029564;28;20041;-87
2022/09/27 00:09:02;;;;;;;86.85;8.07;;;;;;;;;;5038898;28;20031;-87
2022/09/27 00:11:32;;;;;;;77.88;7.65;;;;;;;;;;5004968;28;20067;-88
2022/09/27 00:13:58;;;;;;;74.07;8.43;;;;;;;;;;5021372;28;20111;-88
2022/09/27 00:16:28;;;;;;;46.47;6.72;;;;;;;;;;5017870;28;20045;-87
2022/09/27 00:18:58;;;;;;;85.38;8.02;;;;;;;;;;5023074;28;20040;-87
2022/09/27 00:21:23;;;;;;;38.30;6.88;;;;;;;;;;5000873;28;20029;-88
2022/09/27 00:23:49;;;;;;;18.70;7.07;;;;;;;;;;5010993;28;20013;-87
2022/09/27 00:26:14;;;;;;;;;;;;;;;;;;5019429;28;20048;-87
2022/09/27 00:28:40;;;;;;;9.30;6.05;;;;;;;;;;5027112;28;19974;-88
2022/09/27 00:31:05;;;;;;;;;;;;;;;;;;5028215;28;20041;-88
2022/09/27 00:33:31;;;;;;;7.05;5.22;;;;;;;;;;5031487;28;19909;-88
2022/09/27 00:35:56;;;;;;;;;;;;;;;;;;5024978;28;20067;-86
2022/09/27 00:38:22;;;;;;;8.38;5.53;;;;;;;;;;5038930;28;19909;-89
2022/09/27 00:40:48;;;;;;;7.97;5.18;;;;;;;;;;5005470;28;20041;-87
2022/09/27 00:43:21;;;;;;;6.55;4.60;;;;;;;;;;5004457;28;20094;-87
2022/09/27 00:45:54;;;;;;;10.32;4.93;;;;;;;;;;5022808;28;20036;-87
2022/09/27 00:48:20;;;;;;;6.15;4.53;;;;;;;;;;5020141;28;20133;-86
2022/09/27 00:50:47;;;;;;;4.80;3.72;;;;;;;;;;5018331;28;20385;-88
2022/09/27 00:53:12;;;;;;;;;;;;;;;;;;5012853;28;20045;-87
2022/09/27 00:55:39;;;;;;;41.85;4.30;;;;;;;;;;5027020;28;19916;-87
2022/09/27 00:58:05;;;;;;;29.45;4.07;;;;;;;;;;5023227;28;20048;-87
2022/09/27 01:00:30;;;;;;;36.90;4.03;;;;;;;;;;5022939;28;20060;-88
2022/09/27 01:02:56;;;;;;;;;;;;;;;;;;5025444;28;20035;-86
2022/09/27 01:05:23;;;;;;;5.68;3.67;;;;;;;;;;5012122;28;20367;-87
2022/09/27 01:07:49;;;;;;;11.43;3.50;;;;;;;;;;5002963;28;20041;-86
2022/09/27 01:10:14;;;;;;;4.75;3.28;;;;;;;;;;5022482;28;20025;-87
2022/09/27 01:12:59;;;;;;;13.07;3.20;;;;;;;;;;5024516;28;20029;-87
2022/09/27 01:15:45;;;;;;;5.13;3.35;;;;;;;;;;5040292;28;20108;-87
2022/09/27 01:18:20;;;;;;;4.80;3.28;;;;;;;;;;5012623;28;20041;-87
2022/09/27 01:21:04;;;;;;;3.95;3.00;;;;;;;;;;5025593;28;20033;-88
2022/09/27 01:23:42;;;;;;;8.98;2.90;;;;;;;;;;5019540;28;20063;-87
2022/09/27 01:26:08;;;;;;;11.77;3.15;;;;;;;;;;5035040;28;20047;-87
2022/09/27 01:28:33;;;;;;;8.45;2.90;;;;;;;;;;5036879;28;20101;-88
2022/09/27 01:30:59;;;;;;;6.07;3.17;;;;;;;;;;5031526;28;20038;-87
2022/09/27 01:33:30;;;;;;;4.60;3.40;;;;;;;;;;5029652;28;20057;-87
2022/09/27 01:35:59;;;;;;;13.65;3.22;;;;;;;;;;5018912;28;20052;-87
2022/09/27 01:38:37;;;;;;;12.98;3.53;;;;;;;;;;5020533;28;20032;-86
2022/09/27 01:41:24;;;;;;;4.53;2.88;;;;;;;;;;5010585;28;20087;-87
2022/09/27 01:44:36;;;;;;;18.38;4.47;;;;;;;;;;5037632;28;20501;-89
2022/09/27 01:47:16;;;;;;;8.90;3.08;;;;;;;;;;5007047;28;20065;-89
2022/09/27 01:50:04;;;;;;;5.90;2.85;;;;;;;;;;5014421;28;20033;-88
2022/09/27 01:52:36;;;;;;;6.03;2.83;;;;;;;;;;5021196;28;20041;-89
2022/09/27 01:55:03;;;;;;;12.77;2.92;;;;;;;;;;5007813;28;20521;-88
2022/09/27 01:57:55;;;;;;;7.95;2.65;;;;;;;;;;5000326;28;20512;-88
2022/09/27 02:00:23;;;;;;;4.72;3.10;;;;;;;;;;5032604;28;20107;-89
2022/09/27 02:02:54;;;;;;;8.05;4.43;;;;;;;;;;5014760;28;20433;-89
2022/09/27 02:05:29;;;;;;;4.80;3.38;;;;;;;;;;5045434;28;20040;-89
2022/09/27 02:08:00;;;;;;;5.05;3.25;;;;;;;;;;5025555;28;20079;-88
2022/09/27 02:10:33;;;;;;;3.90;2.75;;;;;;;;;;5020969;28;20041;-89
2022/09/27 02:13:21;;;;;;;11.45;3.25;;;;;;;;;;5021689;28;20041;-88
2022/09/27 02:16:09;;;;;;;21.17;3.78;;;;;;;;;;5037501;28;20039;-89
2022/09/27 02:18:49;;;;;;;13.18;3.50;;;;;;;;;;5002855;28;20065;-88
2022/09/27 02:21:15;;;;;;;4.45;3.10;;;;;;;;;;5038238;28;20453;-89
2022/09/27 02:23:51;;;;;;;5.55;3.08;;;;;;;;;;5021836;28;20027;-88
2022/09/27 02:26:26;;;;;;;13.10;2.90;;;;;;;;;;5006515;28;20415;-88
2022/09/27 02:28:52;;;;;;;11.75;3.08;;;;;;;;;;5003648;28;20086;-87
2022/09/27 02:31:24;;;;;;;7.03;2.80;;;;;;;;;;5025185;28;20030;-87
2022/09/27 02:33:53;;;;;;;7.38;2.72;;;;;;;;;;5009366;28;20033;-87
2022/09/27 02:36:19;;;;;;;4.18;2.78;;;;;;;;;;5022176;28;20040;-88
2022/09/27 02:38:44;;;;;;;;;;;;;;;;;;5024149;28;20485;-88
2022/09/27 02:41:15;;;;;;;5.38;2.78;;;;;;;;;;5032227;28;19909;-88
2022/09/27 02:43:41;;;;;;;10.50;3.20;;;;;;;;;;5028371;28;20036;-88
2022/09/27 02:46:07;;;;;;;3.70;3.10;;;;;;;;;;5023652;28;20025;-88
2022/09/27 02:48:50;;;;;;;4.38;3.17;;;;;;;;;;5037293;28;20500;-88
2022/09/27 02:51:28;;;;;;;22.38;3.45;;;;;;;;;;5024928;28;20037;-88
2022/09/27 02:54:02;;;;;;;8.02;3.25;;;;;;;;;;5024935;28;20045;-88
2022/09/27 02:57:00;;;;;;;35.67;4.18;;;;;;;;;;5041490;28;20069;-87
2022/09/27 02:59:54;;;;;;;23.40;4.00;;;;;;;;;;5021200;28;20511;-88
2022/09/27 03:02:34;;;;;;;42.65;3.83;;;;;;;;;;5025884;28;20043;-88
2022/09/27 03:05:31;;;;;;;38.13;4.18;;;;;;;;;;5014105;28;20037;-87
2022/09/27 03:07:56;;;;;;;69.45;4.63;;;;;;;;;;5037644;28;20034;-87
2022/09/27 03:10:23;;;;;;;58.92;3.92;;;;;;;;;;5000159;28;20024;-89
2022/09/27 03:12:49;;;;;;;63.38;4.18;;;;;;;;;;5021744;28;20501;-89
2022/09/27 03:15:15;;;;;;;52.92;5.00;;;;;;;;;;4992809;28;20064;-88
2022/09/27 03:18:01;;;;;;;38.80;3.70;;;;;;;;;;5024280;28;20056;-89
2022/09/27 03:20:36;;;;;;;55.75;4.78;;;;;;;;;;5031185;28;20053;-87
2022/09/27 03:23:13;;;;;;;49.60;4.10;;;;;;;;;;5017192;28;20041;-87
2022/09/27 03:25:40;;;;;;;100.07;7.03;;;;;;;;;;5008559;28;20030;-89
2022/09/27 03:28:08;;;;;;;20.15;3.60;;;;;;;;;;5012763;28;20029;-90
2022/09/27 03:30:34;;;;;;;11.38;3.10;;;;;;;;;;5012271;28;20498;-88
2022/09/27 03:33:00;;;;;;;13.60;3.65;;;;;;;;;;5025140;28;20136;-89
2022/09/27 03:35:40;;;;;;;26.52;3.35;;;;;;;;;;5031047;28;20033;-89
2022/09/27 03:38:06;;;;;;;22.75;3.10;;;;;;;;;;5034580;28;20087;-88
2022/09/27 03:40:32;;;;;;;11.10;3.75;;;;;;;;;;5038094;28;20040;-89
2022/09/27 03:42:57;;;;;;;;;;;;;;;;;;5000416;28;20038;-89
2022/09/27 03:45:23;;;;;;;19.48;3.88;;;;;;;;;;5028816;28;19909;-87
2022/09/27 03:47:49;;;;;;;17.92;4.45;;;;;;;;;;5023129;28;20039;-89
2022/09/27 03:50:15;;;;;;;22.83;3.72;;;;;;;;;;5030624;28;20453;-88
2022/09/27 03:52:43;;;;;;;21.23;3.83;;;;;;;;;;5017538;28;20065;-88
2022/09/27 03:55:10;;;;;;;9.20;3.38;;;;;;;;;;5040512;28;20121;-88
2022/09/27 03:57:35;;;;;;;53.20;4.60;;;;;;;;;;5019547;28;20063;-88
2022/09/27 04:00:02;;;;;;;22.02;4.22;;;;;;;;;;5043896;28;20053;-90
2022/09/27 04:02:39;;;;;;;10.82;4.05;;;;;;;;;;5030499;28;20030;-87
2022/09/27 04:05:34;;;;;;;14.80;4.78;;;;;;;;;;5019893;28;20101;-88
2022/09/27 04:08:10;;;;;;;18.95;3.85;;;;;;;;;;5014571;28;20029;-88
2022/09/27 04:10:37;;;;;;;11.68;4.10;;;;;;;;;;5040804;28;20030;-86
2022/09/27 04:13:03;;;;;;;16.02;3.95;;;;;;;;;;5028418;28;20036;-88
2022/09/27 04:15:33;;;;;;;15.35;3.58;;;;;;;;;;5007259;28;20034;-88
2022/09/27 04:18:18;;;;;;;5.95;3.30;;;;;;;;;;5033466;28;20054;-90
2022/09/27 04:20:58;;;;;;;21.42;4.13;;;;;;;;;;5019321;28;20398;-89
2022/09/27 04:23:24;;;;;;;67.55;5.32;;;;;;;;;;5035885;28;20033;-89
2022/09/27 04:25:51;;;;;;;14.30;3.72;;;;;;;;;;5017898;28;20039;-90
2022/09/27 04:28:28;;;;;;;6.38;3.67;;;;;;;;;;5013550;28;20667;-88
2022/09/27 04:30:55;;;;;;;19.70;4.18;;;;;;;;;;5030153;28;20038;-89
2022/09/27 04:33:46;;;;;;;12.43;4.07;;;;;;;;;;5028622;28;20068;-88
2022/09/27 04:36:27;;;;;;;4.85;3.78;;;;;;;;;;5041663;28;20037;-88
2022/09/27 04:39:18;;;;;;;6.22;3.70;;;;;;;;;;5029629;28;20034;-91
2022/09/27 04:42:14;;;;;;;6.88;4.72;;;;;;;;;;5038074;28;20056;-89
2022/09/27 04:44:40;;;;;;;5.32;4.00;;;;;;;;;;5042997;28;20041;-89
2022/09/27 04:47:05;;;;;;;7.63;5.60;;;;;;;;;;5031232;28;20063;-84
2022/09/27 04:49:56;;;;;;;10.73;5.93;;;;;;;;;;5080204;23;20073;-88
2022/09/27 04:52:22;;;;;;;11.48;5.50;;;;;;;;;;5043753;28;20068;-89
2022/09/27 04:54:48;;;;;;;10.95;6.20;;;;;;;;;;5013620;28;20052;-89
2022/09/27 04:57:18;;;;;;;10.25;5.03;;;;;;;;;;5027255;28;20126;-87
2022/09/27 04:59:44;;;;;;;9.48;4.88;;;;;;;;;;5012229;28;20041;-88
2022/09/27 05:02:11;;;;;;;10.32;4.50;;;;;;;;;;5008040;28;20065;-87
2022/09/27 05:05:07;;;;;;;10.77;5.07;;;;;;;;;;4959160;28;20058;-87
2022/09/27 05:07:37;;;;;;;18.52;5.15;;;;;;;;;;5020065;28;20038;-88
2022/09/27 05:10:19;;;;;;;7.40;5.30;;;;;;;;;;5012826;28;20049;-90
2022/09/27 05:12:45;;;;;;;45.97;5.78;;;;;;;;;;5029959;28;20037;-88
2022/09/27 05:15:13;;;;;;;13.38;5.72;;;;;;;;;;5015278;28;20063;-87
2022/09/27 05:17:57;;;;;;;45.03;6.18;;;;;;;;;;5030554;28;20044;-88
2022/09/27 05:20:43;;;;;;;22.83;4.60;;;;;;;;;;5037578;28;20044;-85
2022/09/27 05:23:18;;;;;;;25.30;5.27;;;;;;;;;;5015235;28;20033;-87
2022/09/27 05:25:45;;;;;;;18.23;5.30;;;;;;;;;;5034747;28;20042;-88
2022/09/27 05:28:10;;;;;;;;;;;;;;;;;;5044432;28;20033;-87
2022/09/27 05:30:37;;;;;;;13.07;5.75;;;;;;;;;;5052004;28;19893;-88
2022/09/27 05:33:24;;;;;;;31.38;6.38;;;;;;;;;;5036142;28;20033;-87
2022/09/27 05:36:12;;;;;;;18.13;6.38;;;;;;;;;;5033838;28;20050;-87
2022/09/27 05:38:38;;;;;;;12.73;6.22;;;;;;;;;;5031315;28;20124;-88
2022/09/27 05:41:04;;;;;;;10.50;6.72;;;;;;;;;;5026385;28;20028;-88
2022/09/27 05:43:31;;;;;;;18.75;6.72;;;;;;;;;;5036140;28;20052;-88
2022/09/27 05:46:00;;;;;;;12.90;6.82;;;;;;;;;;5048066;28;20052;-88
2022/09/27 05:48:29;;;;;;;9.38;6.10;;;;;;;;;;5024951;28;20049;-88
2022/09/27 05:50:59;;;;;;;16.77;6.88;;;;;;;;;;5044387;28;20038;-88
2022/09/27 05:53:25;;;;;;;21.58;7.22;;;;;;;;;;5035783;28;20044;-87
2022/09/27 05:55:53;;;;;;;19.42;8.43;;;;;;;;;;5049831;28;20097;-89
2022/09/27 05:58:27;;;;;;;21.90;7.70;;;;;;;;;;5017608;28;20053;-87
2022/09/27 06:01:08;;;;;;;14.30;6.97;;;;;;;;;;5007064;28;20028;-88
2022/09/27 06:03:54;;;;;;;16.95;7.72;;;;;;;;;;5047259;28;20126;-90
2022/09/27 06:06:39;;;;;;;23.00;7.00;;;;;;;;;;5030904;28;20117;-88
2022/09/27 06:09:09;;;;;;;13.27;7.90;;;;;;;;;;5042056;28;20103;-86
2022/09/27 06:11:36;;;;;;;13.77;6.53;;;;;;;;;;5030378;28;20093;-88
2022/09/27 06:14:03;;;;;;;13.25;6.75;;;;;;;;;;5018797;28;20061;-86
2022/09/27 06:16:34;;;;;;;12.25;6.72;;;;;;;;;;5047247;28;20042;-89
2022/09/27 06:19:00;;;;;;;11.13;7.18;;;;;;;;;;5146887;23;20057;-91
2022/09/27 06:21:27;;;;;;;12.70;6.95;;;;;;;;;;5031391;28;20018;-88
2022/09/27 06:23:58;;;;;;;14.13;7.60;;;;;;;;;;5045327;28;20037;-88
2022/09/27 06:26:33;;;;;;;15.25;8.20;;;;;;;;;;5050941;28;20071;-87
2022/09/27 06:29:35;;;;;;;15.32;8.70;;;;;;;;;;5031545;28;20040;-88
2022/09/27 06:32:03;;;;;;;15.90;9.15;;;;;;;;;;5044893;28;20053;-87
2022/09/27 06:34:41;;;;;;;;;;;;;;;;;;5031612;28;20077;-87
2022/09/27 06:37:06;;;;;;;14.48;9.05;;;;;;;;;;5054856;28;19905;-88
2022/09/27 06:39:33;;;;;;;13.07;8.35;;;;;;;;;;5043808;28;20493;-89
2022/09/27 06:42:19;;;;;;;17.58;8.88;;;;;;;;;;5059723;28;20033;-88
2022/09/27 06:45:14;;;;;;;14.45;8.52;;;;;;;;;;5033777;28;20067;-89
2022/09/27 06:48:01;;;;;;;15.10;8.95;;;;;;;;;;5050108;28;20075;-87
2022/09/27 06:50:38;;;;;;;17.25;9.35;;;;;;;;;;5027263;28;20161;-89
2022/09/27 06:53:05;;;;;;;17.38;8.35;;;;;;;;;;5038473;28;20100;-90
2022/09/27 06:55:30;;;;;;;10.65;8.02;;;;;;;;;;5027037;28;20033;-86
2022/09/27 07:00:53;;;;;;;12.65;9.10;;;;;;;;;;5034094;28;20538;-88
2022/09/27 07:03:43;;;;;;;13.98;9.07;;;;;;;;;;5040771;28;20041;-89
2022/09/27 07:06:27;;;;;;;16.33;9.48;;;;;;;;;;5048301;28;20519;-85
2022/09/27 07:09:02;;;;;;;17.58;9.77;;;;;;;;;;5029362;28;20048;-88
2022/09/27 07:11:28;;;;;;;;;;;;;;;;;;5039059;28;20075;-86
2022/09/27 07:13:55;;;;;;;14.15;9.82;;;;;;;;;;5039356;28;19917;-88
2022/09/27 07:16:21;;;;;;;14.27;9.77;;;;;;;;;;5029893;28;20063;-87
2022/09/27 07:21:28;;;;;;;16.70;9.27;;;;;;;;;;5149277;23;19982;-89
2022/09/27 07:23:56;;;;;;;13.85;8.90;;;;;;;;;;5040337;28;20041;-89
2022/09/27 07:26:22;;;;;;;;;;;;;;;;;;5036430;28;20081;-88
2022/09/27 07:29:13;;;;;;;14.45;8.77;;;;;;;;;;5168135;23;19952;-88
2022/09/27 07:31:41;;;;;;;12.50;7.93;;;;;;;;;;5031379;28;20040;-88
2022/09/27 07:34:09;;;;;;;10.98;7.25;;;;;;;;;;4989961;28;20030;-88
2022/09/27 07:36:35;;;;;;;10.48;7.00;;;;;;;;;;5027263;28;20038;-89
2022/09/27 07:39:01;;;;;;;;;;;;;;;;;;4992549;28;20029;-87
2022/09/27 07:41:30;;;;;;;11.02;5.60;;;;;;;;;;5046111;28;19913;-87
2022/09/27 07:43:56;;;;;;;;;;;;;;;;;;5007761;28;20161;-88
2022/09/27 07:46:25;;;;;;;11.32;5.32;;;;;;;;;;5028095;28;19920;-88
2022/09/27 07:48:56;;;;;;;7.38;5.22;;;;;;;;;;5009279;28;20032;-89
2022/09/27 07:51:40;;;;;;;7.78;5.10;;;;;;;;;;5013271;28;20045;-88
2022/09/27 07:54:12;;;;;;;7.40;5.70;;;;;;;;;;5010359;28;20076;-89
2022/09/27 07:56:44;;;;;;;6.97;5.20;;;;;;;;;;5021461;28;20034;-88
2022/09/27 07:59:12;;;;;;;8.13;5.10;;;;;;;;;;5087029;23;20058;-89
2022/09/27 08:01:39;;;;;;;7.72;4.75;;;;;;;;;;5005655;28;20038;-88
2022/09/27 08:04:05;;;;;;;;;;;;;;;;;;5018178;28;20041;-87
2022/09/27 08:06:30;;;;;;;7.50;5.30;;;;;;;;;;5022113;28;19916;-87
2022/09/27 08:08:58;;;;;;;8.25;6.30;;;;;;;;;;5010337;28;21040;-86
2022/09/27 08:11:26;;;;;;;9.95;5.03;;;;;;;;;;4980460;28;20027;-89
2022/09/27 08:13:53;;;;;;;7.93;4.78;;;;;;;;;;4992711;28;20038;-90
2022/09/27 08:16:22;;;;;;;7.75;4.40;;;;;;;;;;5020113;28;20041;-89
2022/09/27 08:19:11;;;;;;;6.28;3.88;;;;;;;;;;4987569;28;20107;-89
2022/09/27 08:21:45;;;;;;;7.03;4.05;;;;;;;;;;5012967;28;20038;-89
2022/09/27 08:24:19;;;;;;;7.40;4.57;;;;;;;;;;4984983;28;20038;-88
2022/09/27 08:27:07;;;;;;;8.07;4.63;;;;;;;;;;5008959;28;20036;-88
2022/09/27 08:29:46;;;;;;;10.68;4.68;;;;;;;;;;5015262;28;20026;-87
2022/09/27 08:32:12;;;;;;;5.30;4.20;;;;;;;;;;5002067;28;20061;-86
2022/09/27 08:34:38;;;;;;;;;;;;;;;;;;4992140;28;20022;-87
2022/09/27 08:37:03;;;;;;;6.65;4.10;;;;;;;;;;5004394;28;19961;-87
2022/09/27 08:39:30;;;;;;;10.63;4.95;;;;;;;;;;5000611;28;20027;-88
2022/09/27 08:41:56;;;;;;;;;;;;;;;;;;4988870;28;20042;-87
2022/09/27 08:44:40;;;;;;;5.82;4.55;;;;;;;;;;5003506;28;19890;-87
2022/09/27 08:47:28;;;;;;;6.18;4.75;;;;;;;;;;5123519;23;20111;-89
2022/09/27 08:49:55;;;;;;;7.32;5.45;;;;;;;;;;5017825;28;20037;-88
2022/09/27 08:52:26;;;;;;;9.68;5.13;;;;;;;;;;5037946;28;20030;-88
2022/09/27 08:54:52;;;;;;;5.80;4.07;;;;;;;;;;5003304;28;20048;-87
2022/09/27 08:57:18;;;;;;;;;;;;;;;;;;5003444;28;20038;-88
2022/09/27 08:59:58;;;;;;;6.93;4.20;;;;;;;;;;5024867;28;19913;-88
2022/09/27 09:02:25;;;;;;;7.57;4.30;;;;;;;;;;4990061;28;20037;-89
2022/09/27 09:04:59;;;;;;;5.53;4.03;;;;;;;;;;5000160;28;20073;-88
2022/09/27 09:07:50;;;;;;;7.35;4.97;;;;;;;;;;4998964;28;20171;-89
2022/09/27 09:14:00;;;;;;;12.40;5.55;;;;;;;;;;5012548;28;20042;-87
2022/09/27 09:16:46;;;;;;;6.80;5.00;;;;;;;;;;5017784;28;20017;-92
2022/09/27 09:19:30;;;;;;;7.70;4.95;;;;;;;;;;5025278;28;20038;-88
2022/09/27 09:22:27;;;;;;;11.80;5.57;;;;;;;;;;5036027;28;20032;-87
2022/09/27 09:24:56;;;;;;;9.70;5.40;;;;;;;;;;5458832;22;20058;-89
2022/09/27 09:27:34;;;;;;;7.63;5.30;;;;;;;;;;5008276;28;20029;-88
2022/09/27 09:30:04;;;;;;;11.07;8.05;;;;;;;;;;4998988;28;20034;-89
2022/09/27 09:32:38;;;;;;;7.55;5.57;;;;;;;;;;5000206;28;20051;-88
2022/09/27 09:35:06;;;;;;;10.55;5.72;;;;;;;;;;5015719;28;20037;-88
2022/09/27 09:37:34;;;;;;;9.80;5.90;;;;;;;;;;5010605;28;20029;-89
2022/09/27 09:40:07;;;;;;;10.90;6.55;;;;;;;;;;4990107;28;20124;-88
2022/09/27 09:42:45;;;;;;;8.57;5.55;;;;;;;;;;5014443;28;20041;-86
2022/09/27 09:45:15;;;;;;;11.93;5.75;;;;;;;;;;5001127;28;20041;-88
2022/09/27 09:47:43;;;;;;;8.88;5.30;;;;;;;;;;5030235;28;20029;-86
2022/09/27 09:50:19;;;;;;;8.23;5.10;;;;;;;;;;5011816;28;20026;-87
2022/09/27 09:52:47;;;;;;;6.40;4.90;;;;;;;;;;5005661;28;20028;-89
2022/09/27 09:55:15;;;;;;;8.40;5.40;;;;;;;;;;4998313;28;20038;-89
2022/09/27 09:57:48;;;;;;;7.25;4.57;;;;;;;;;;4996814;28;20042;-88
2022/09/27 10:00:20;;;;;;;9.95;5.20;;;;;;;;;;5022883;28;20030;-88
2022/09/27 10:02:50;;;;;;;9.00;5.20;;;;;;;;;;5006472;28;20037;-86
2022/09/27 10:05:20;;;;;;;6.63;4.57;;;;;;;;;;5011180;28;20040;-88
2022/09/27 10:07:50;;;;;;;7.72;4.80;;;;;;;;;;4989837;28;20034;-86
2022/09/27 10:10:16;;;;;;;10.00;4.57;;;;;;;;;;5008916;28;20416;-86
2022/09/27 10:12:53;;;;;;;7.63;3.97;;;;;;;;;;4998577;28;20037;-88
2022/09/27 10:15:27;;;;;;;10.38;4.30;;;;;;;;;;5061441;22;20976;-90
2022/09/27 10:17:55;;;;;;;4.78;3.40;;;;;;;;;;5031410;28;20073;-87
2022/09/27 10:20:28;;;;;;;9.02;3.42;;;;;;;;;;5033693;28;20093;-88
2022/09/27 10:22:54;;;;;;;6.13;3.53;;;;;;;;;;5016927;28;20082;-87
2022/09/27 10:29:15;;;;;;;8.30;3.77;;;;;;;;;;5044575;28;20032;-86
2022/09/27 10:31:44;;;;;;;8.98;3.50;;;;;;;;;;5038637;28;20041;-86
2022/09/27 10:34:18;;;;;;;9.30;3.53;;;;;;;;;;5037813;28;20033;-89
2022/09/27 10:37:01;;;;;;;7.35;3.55;;;;;;;;;;5025926;28;20030;-87
2022/09/27 10:39:27;;;;;;;7.03;3.08;;;;;;;;;;5023622;28;20034;-88
2022/09/27 10:41:54;;;;;;;5.90;3.35;;;;;;;;;;5021810;28;20480;-88
2022/09/27 10:44:39;;;;;;;7.72;3.15;;;;;;;;;;5008797;28;20049;-89
2022/09/27 10:47:18;;;;;;;4.93;3.30;;;;;;;;;;5025232;28;20038;-88
2022/09/27 10:49:51;;;;;;;4.32;2.92;;;;;;;;;;5004862;28;20040;-89
2022/09/27 10:52:41;;;;;;;5.78;3.10;;;;;;;;;;5042554;28;20101;-88
2022/09/27 10:55:24;;;;;;;4.53;2.88;;;;;;;;;;5024321;28;20013;-87
2022/09/27 10:57:53;;;;;;;5.65;2.97;;;;;;;;;;5020908;28;20489;-88
2022/09/27 11:00:22;;;;;;;6.10;2.97;;;;;;;;;;5029607;28;20041;-90
2022/09/27 11:02:55;;;;;;;5.05;3.20;;;;;;;;;;5039159;28;20526;-88
2022/09/27 11:05:42;;;;;;;4.85;3.20;;;;;;;;;;5040991;28;20535;-89
2022/09/27 11:08:17;;;;;;;9.35;3.10;;;;;;;;;;5034407;28;20072;-86
2022/09/27 11:11:05;;;;;;;8.48;3.42;;;;;;;;;;5016330;28;20040;-89
2022/09/27 11:13:59;;;;;;;8.07;3.33;;;;;;;;;;5138136;22;20053;-90
2022/09/27 11:16:56;;;;;;;9.27;3.92;;;;;;;;;;5035339;28;20044;-88
2022/09/27 11:19:29;;;;;;;11.10;3.97;;;;;;;;;;5023354;28;20041;-88
2022/09/27 11:22:12;;;;;;;7.30;3.95;;;;;;;;;;5025403;28;20055;-88
2022/09/27 11:24:56;;;;;;;10.18;4.60;;;;;;;;;;5028842;28;20047;-89
2022/09/27 11:27:36;;;;;;;10.52;4.55;;;;;;;;;;5033753;28;20049;-87
2022/09/27 11:30:04;;;;;;;8.98;4.43;;;;;;;;;;5032374;28;20057;-89
2022/09/27 11:32:52;;;;;;;9.13;4.57;;;;;;;;;;5039697;28;20085;-88
2022/09/27 11:35:31;;;;;;;11.23;4.85;;;;;;;;;;5052053;28;20044;-87
2022/09/27 11:38:03;;;;;;;9.73;4.72;;;;;;;;;;5017676;28;20044;-88
2022/09/27 11:40:29;;;;;;;9.02;4.40;;;;;;;;;;5031681;28;20030;-88
2022/09/27 11:42:54;;;;;;;;;;;;;;;;;;5026618;28;20052;-88
2022/09/27 11:45:23;;;;;;;14.80;5.07;;;;;;;;;;5043846;28;19914;-88
2022/09/27 11:48:06;;;;;;;10.23;4.90;;;;;;;;;;5049653;28;20029;-88
2022/09/27 11:50:32;;;;;;;7.00;4.55;;;;;;;;;;5014694;28;20038;-89
2022/09/27 11:55:55;;;;;;;8.30;5.20;;;;;;;;;;5004633;28;19918;-87
2022/09/27 11:58:24;;;;;;;12.98;5.60;;;;;;;;;;5001638;28;20065;-88
2022/09/27 12:00:57;;;;;;;11.82;5.25;;;;;;;;;;5000528;28;20027;-88
2022/09/27 12:03:36;;;;;;;11.25;4.95;;;;;;;;;;4971576;28;20042;-87
2022/09/27 12:06:01;;;;;;;9.65;5.40;;;;;;;;;;5005086;28;20058;-89
2022/09/27 12:08:47;;;;;;;7.65;5.30;;;;;;;;;;4997304;28;20018;-89
2022/09/27 12:11:31;;;;;;;9.60;5.47;;;;;;;;;;5011462;28;20069;-88
2022/09/27 12:13:58;;;;;;;8.45;4.85;;;;;;;;;;5010053;28;20124;-87
2022/09/27 12:16:24;;;;;;;8.98;5.20;;;;;;;;;;4991213;28;20030;-89
2022/09/27 12:18:49;;;;;;;;;;;;;;;;;;4962087;28;20031;-87
2022/09/27 12:21:31;;;;;;;13.88;5.82;;;;;;;;;;4985855;28;19910;-88
2022/09/27 12:23:57;;;;;;;13.75;5.25;;;;;;;;;;4967066;28;20030;-88
2022/09/27 12:27:00;;;;;;;8.45;5.50;;;;;;;;;;4952217;28;20084;-87
2022/09/27 12:29:28;;;;;;;7.28;5.20;;;;;;;;;;5007873;28;20039;-88
2022/09/27 12:32:04;;;;;;;6.15;4.60;;;;;;;;;;4981303;28;20028;-89
2022/09/27 12:34:37;;;;;;;10.77;5.10;;;;;;;;;;4993531;28;20058;-88
2022/09/27 12:37:07;;;;;;;9.15;5.45;;;;;;;;;;4996640;28;20096;-88
2022/09/27 12:39:39;;;;;;;7.13;4.72;;;;;;;;;;4982459;28;20034;-87
2022/09/27 12:42:25;;;;;;;12.32;4.60;;;;;;;;;;5001099;28;20026;-88
2022/09/27 12:45:00;;;;;;;10.68;5.00;;;;;;;;;;4997106;28;20085;-86
2022/09/27 12:47:37;;;;;;;8.60;4.28;;;;;;;;;;5000963;28;20034;-91
2022/09/27 12:50:08;;;;;;;8.02;4.65;;;;;;;;;;4997743;28;20049;-89
2022/09/27 12:52:34;;;;;;;;;;;;;;;;;;4998247;28;20030;-88
2022/09/27 13:01:13;;;;;;;11.70;4.28;;;;;;;;;;5179773;23;20075;-89
2022/09/27 13:03:42;;;;;;;9.05;4.28;;;;;;;;;;5023648;28;20034;-91
2022/09/27 13:06:15;;;;;;;8.50;4.57;;;;;;;;;;5014548;28;20040;-89
2022/09/27 13:08:42;;;;;;;6.95;3.88;;;;;;;;;;4998012;28;20069;-90
2022/09/27 13:11:15;;;;;;;6.00;3.60;;;;;;;;;;5010853;28;20094;-88
2022/09/27 13:13:41;;;;;;;9.10;4.28;;;;;;;;;;4983115;28;20078;-89
2022/09/27 13:16:13;;;;;;;5.65;3.40;;;;;;;;;;5114687;23;20070;-89
2022/09/27 13:18:58;;;;;;;4.97;3.50;;;;;;;;;;5002316;28;20091;-89
2022/09/27 13:21:51;;;;;;;6.05;3.70;;;;;;;;;;5050628;28;20575;-88
2022/09/27 13:24:40;;;;;;;7.57;3.65;;;;;;;;;;5108707;23;20469;-90
2022/09/27 13:27:37;;;;;;;7.78;3.65;;;;;;;;;;5050088;28;20040;-88
2022/09/27 13:30:10;;;;;;;5.40;4.00;;;;;;;;;;5018194;28;20113;-88
2022/09/27 13:32:39;;;;;;;5.72;3.88;;;;;;;;;;5016585;28;20088;-86
2022/09/27 13:35:20;;;;;;;7.82;4.50;;;;;;;;;;5020039;28;20030;-89
2022/09/27 13:37:57;;;;;;;8.10;4.22;;;;;;;;;;5029715;28;20042;-87
2022/09/27 13:40:37;;;;;;;5.88;4.20;;;;;;;;;;5051412;28;20493;-87
2022/09/27 13:43:19;;;;;;;5.43;4.15;;;;;;;;;;5022566;28;20124;-87
2022/09/27 13:45:57;;;;;;;5.95;4.03;;;;;;;;;;5037895;28;20029;-88
2022/09/27 13:48:25;;;;;;;6.63;4.10;;;;;;;;;;5038919;28;20160;-87
2022/09/27 13:50:55;;;;;;;6.82;4.20;;;;;;;;;;5008596;28;20029;-87
2022/09/27 13:53:23;;;;;;;9.60;4.35;;;;;;;;;;5022515;28;20049;-88
2022/09/27 13:55:50;;;;;;;7.40;4.50;;;;;;;;;;5013968;28;20085;-89
2022/09/27 13:58:36;;;;;;;6.45;4.70;;;;;;;;;;5031472;28;20073;-88
2022/09/27 14:01:13;;;;;;;8.32;4.38;;;;;;;;;;5039793;28;20108;-90
2022/09/27 14:03:48;;;;;;;6.38;3.75;;;;;;;;;;5028975;28;20014;-88
2022/09/27 14:06:17;;;;;;;9.18;4.43;;;;;;;;;;5044338;28;20026;-88
2022/09/27 14:08:48;;;;;;;9.75;4.30;;;;;;;;;;5043849;28;20033;-88
2022/09/27 14:11:21;;;;;;;7.15;3.92;;;;;;;;;;5038515;28;20097;-87
2022/09/27 14:13:48;;;;;;;8.32;4.00;;;;;;;;;;5042923;28;20049;-87
2022/09/27 14:16:15;;;;;;;7.00;3.88;;;;;;;;;;5014150;28;20026;-88
2022/09/27 14:18:43;;;;;;;9.10;3.78;;;;;;;;;;5022590;28;20041;-88
2022/09/27 14:21:15;;;;;;;8.93;3.58;;;;;;;;;;5023270;28;20025;-87
2022/09/27 14:23:52;;;;;;;9.27;3.70;;;;;;;;;;5051778;28;20047;-87
2022/09/27 14:26:17;;;;;;;;;;;;;;;;;;5023112;28;20064;-89
2022/09/27 14:28:45;;;;;;;8.18;3.83;;;;;;;;;;5058058;28;19965;-88
2022/09/27 14:31:38;;;;;;;8.95;3.50;;;;;;;;;;5032940;28;20041;-88
2022/09/27 14:34:14;;;;;;;8.80;3.47;;;;;;;;;;5046039;28;20041;-88
2022/09/27 14:39:37;;;;;;;7.60;3.67;;;;;;;;;;5040418;28;20029;-88
2022/09/27 14:42:25;;;;;;;7.68;3.60;;;;;;;;;;5022682;28;20026;-88
2022/09/27 14:44:51;;;;;;;7.40;3.45;;;;;;;;;;5034101;28;20037;-88
2022/09/27 14:47:17;;;;;;;;;;;;;;;;;;5027474;28;20396;-87
2022/09/27 14:49:47;;;;;;;8.20;4.25;;;;;;;;;;5017906;28;19918;-89
2022/09/27 14:52:30;;;;;;;8.73;3.63;;;;;;;;;;5025288;28;20052;-87
2022/09/27 14:55:07;;;;;;;8.13;3.47;;;;;;;;;;5053431;28;20060;-87
2022/09/27 14:57:34;;;;;;;7.53;3.45;;;;;;;;;;5033586;28;20116;-88
2022/09/27 15:00:04;;;;;;;7.07;3.47;;;;;;;;;;5035607;28;20041;-87
2022/09/27 15:02:32;;;;;;;5.50;3.13;;;;;;;;;;5043909;28;20029;-89
2022/09/27 15:04:57;;;;;;;5.43;3.10;;;;;;;;;;5048223;28;20037;-88
2022/09/27 15:07:23;;;;;;;;;;;;;;;;;;5034104;28;20032;-89
2022/09/27 15:09:49;;;;;;;11.70;3.60;;;;;;;;;;5029829;28;19920;-86
2022/09/27 15:12:21;;;;;;;11.13;3.42;;;;;;;;;;5044193;28;20029;-87
2022/09/27 15:14:47;;;;;;;8.25;3.88;;;;;;;;;;5033098;28;20057;-88
2022/09/27 15:17:13;;;;;;;;;;;;;;;;;;5032815;28;20623;-88
2022/09/27 15:19:38;;;;;;;7.80;3.75;;;;;;;;;;5033284;28;19894;-89
2022/09/27 15:22:20;;;;;;;7.32;3.80;;;;;;;;;;5031559;28;20500;-88
2022/09/27 15:24:46;;;;;;;6.97;3.45;;;;;;;;;;5025907;28;20061;-88
2022/09/27 15:27:11;;;;;;;;;;;;;;;;;;5015611;28;20041;-88
2022/09/27 15:29:37;;;;;;;9.90;3.40;;;;;;;;;;5034599;28;19913;-87
2022/09/27 15:32:02;;;;;;;;;;;;;;;;;;5011973;28;20030;-87
2022/09/27 15:34:28;;;;;;;6.75;3.17;;;;;;;;;;5025504;28;19913;-88
2022/09/27 15:37:02;;;;;;;5.20;3.53;;;;;;;;;;5030255;28;20047;-87
2022/09/27 15:39:31;;;;;;;7.13;3.80;;;;;;;;;;5027241;28;20040;-89
2022/09/27 15:42:11;;;;;;;7.28;3.40;;;;;;;;;;5026368;28;20530;-88
2022/09/27 15:44:44;;;;;;;7.63;3.10;;;;;;;;;;5014317;28;20036;-88
2022/09/27 15:47:30;;;;;;;7.13;3.50;;;;;;;;;;5034464;28;20059;-89